createdAt,value
2018-12-17T00:00:39.155Z,31.33
2018-12-17T00:03:08.421Z,30.50
2018-12-17T00:05:41.752Z,33.23
2018-12-17T00:08:09.099Z,30.60
2018-12-17T00:10:38.400Z,25.63
2018-12-17T00:13:08.245Z,33.43
2018-12-17T00:15:37.467Z,32.07
2018-12-17T00:18:06.787Z,34.83
2018-12-17T00:20:36.038Z,33.57
2018-12-17T00:23:05.301Z,36.43
2018-12-17T00:25:34.514Z,29.23
2018-12-17T00:28:08.081Z,31.37
2018-12-17T00:30:34.997Z,33.07
2018-12-17T00:33:04.277Z,32.13
2018-12-17T00:35:33.544Z,32.43
2018-12-17T00:38:02.744Z,31.30
2018-12-17T00:40:33.082Z,29.73
2018-12-17T00:43:02.406Z,31.93
2018-12-17T00:45:31.753Z,32.43
2018-12-17T00:48:00.964Z,33.13
2018-12-17T00:50:30.198Z,35.67
2018-12-17T00:52:59.399Z,31.93
2018-12-17T00:55:28.653Z,32.77
2018-12-17T00:57:57.949Z,34.07
2018-12-17T01:00:27.409Z,38.33
2018-12-17T01:02:56.806Z,33.43
2018-12-17T01:05:26.198Z,32.30
2018-12-17T01:07:56.358Z,33.33
2018-12-17T01:10:25.943Z,35.30
2018-12-17T01:12:55.185Z,30.87
2018-12-17T01:15:24.430Z,33.23
2018-12-17T01:17:53.814Z,33.97
2018-12-17T01:20:23.047Z,27.93
2018-12-17T01:22:52.946Z,32.33
2018-12-17T01:25:22.220Z,28.40
2018-12-17T01:27:51.519Z,31.83
2018-12-17T01:30:20.796Z,26.97
2018-12-17T01:32:50.401Z,26.57
2018-12-17T01:35:19.705Z,28.33
2018-12-17T01:37:49.002Z,30.23
2018-12-17T01:40:18.332Z,27.57
2018-12-17T01:42:47.608Z,29.50
2018-12-17T01:45:16.818Z,31.60
2018-12-17T01:47:46.097Z,30.37
2018-12-17T01:50:15.434Z,31.00
2018-12-17T01:52:44.650Z,31.83
2018-12-17T01:55:14.485Z,30.97
2018-12-17T01:57:43.705Z,30.80
2018-12-17T02:00:13.115Z,28.30
2018-12-17T02:02:42.701Z,27.97
2018-12-17T02:05:12.133Z,28.40
2018-12-17T02:07:41.322Z,25.50
2018-12-17T02:10:10.823Z,28.03
2018-12-17T02:12:40.158Z,26.70
2018-12-17T02:15:09.573Z,27.40
2018-12-17T02:17:38.838Z,26.20
2018-12-17T02:20:08.590Z,24.57
2018-12-17T02:22:37.833Z,26.60
2018-12-17T02:25:07.358Z,26.30
2018-12-17T02:27:36.603Z,26.27
2018-12-17T02:30:07.265Z,27.80
2018-12-17T02:32:36.604Z,24.33
2018-12-17T02:35:06.300Z,27.10
2018-12-17T02:37:36.057Z,27.23
2018-12-17T02:40:07.062Z,23.97
2018-12-17T02:42:36.333Z,26.03
2018-12-17T02:45:06.316Z,26.93
2018-12-17T02:47:35.634Z,27.23
2018-12-17T02:50:06.070Z,26.67
2018-12-17T02:52:35.444Z,27.37
2018-12-17T02:55:05.390Z,28.07
2018-12-17T02:57:34.685Z,27.60
2018-12-17T03:00:04.988Z,27.07
2018-12-17T03:02:34.361Z,23.70
2018-12-17T03:05:04.105Z,24.60
2018-12-17T03:07:33.336Z,24.77
2018-12-17T03:10:02.641Z,24.07
2018-12-17T03:12:31.870Z,24.70
2018-12-17T03:15:01.228Z,21.90
2018-12-17T03:17:30.523Z,22.33
2018-12-17T03:19:59.747Z,19.57
2018-12-17T03:22:29.192Z,20.87
2018-12-17T03:24:58.481Z,19.93
2018-12-17T03:27:27.724Z,23.50
2018-12-17T03:29:56.950Z,22.80
2018-12-17T03:32:26.297Z,22.40
2018-12-17T03:34:55.708Z,22.60
2018-12-17T03:37:24.954Z,21.60
2018-12-17T03:39:54.182Z,21.07
2018-12-17T03:42:23.465Z,22.97
2018-12-17T03:44:52.768Z,22.13
2018-12-17T03:47:27.591Z,21.67
2018-12-17T03:49:56.822Z,21.90
2018-12-17T03:52:26.068Z,20.93
2018-12-17T03:54:55.578Z,22.90
2018-12-17T03:57:24.893Z,21.93
2018-12-17T03:59:54.136Z,22.50
2018-12-17T04:02:23.430Z,22.07
2018-12-17T04:04:53.028Z,23.13
2018-12-17T04:07:23.258Z,23.67
2018-12-17T04:09:52.501Z,25.60
2018-12-17T04:12:21.753Z,25.20
2018-12-17T04:14:51.822Z,23.27
2018-12-17T04:17:21.154Z,21.27
2018-12-17T04:19:50.406Z,21.20
2018-12-17T04:22:19.633Z,19.73
2018-12-17T04:24:48.875Z,20.03
2018-12-17T04:27:18.157Z,19.67
2018-12-17T04:29:47.403Z,21.60
2018-12-17T04:32:16.646Z,26.13
2018-12-17T04:34:45.892Z,24.63
2018-12-17T04:37:15.131Z,23.23
2018-12-17T04:39:44.380Z,22.17
2018-12-17T04:42:13.721Z,25.67
2018-12-17T04:44:43.002Z,26.33
2018-12-17T04:47:12.217Z,30.80
2018-12-17T04:49:41.453Z,29.47
2018-12-17T04:52:10.717Z,28.37
2018-12-17T04:54:40.056Z,35.80
2018-12-17T04:57:16.289Z,36.57
2018-12-17T04:59:45.578Z,28.67
2018-12-17T05:02:14.909Z,32.63
2018-12-17T05:04:44.145Z,39.57
2018-12-17T05:07:13.385Z,39.43
2018-12-17T05:09:44.402Z,35.13
2018-12-17T05:12:13.918Z,40.13
2018-12-17T05:14:43.221Z,31.87
2018-12-17T05:17:12.459Z,42.23
2018-12-17T05:19:41.700Z,39.03
2018-12-17T05:22:10.929Z,36.87
2018-12-17T05:24:40.165Z,39.53
2018-12-17T05:27:09.409Z,34.70
2018-12-17T05:29:38.678Z,41.63
2018-12-17T05:32:08.100Z,42.70
2018-12-17T05:34:37.365Z,40.50
2018-12-17T05:37:06.881Z,33.60
2018-12-17T05:39:36.103Z,34.67
2018-12-17T05:42:05.504Z,27.57
2018-12-17T05:44:34.718Z,33.90
2018-12-17T05:47:04.053Z,34.03
2018-12-17T05:49:33.254Z,39.50
2018-12-17T05:52:02.509Z,41.87
2018-12-17T05:54:31.794Z,36.57
2018-12-17T05:57:01.029Z,34.30
2018-12-17T05:59:30.252Z,38.83
2018-12-17T06:01:59.486Z,39.57
2018-12-17T06:04:28.777Z,43.10
2018-12-17T06:06:58.053Z,35.27
2018-12-17T06:09:27.687Z,36.73
2018-12-17T06:11:57.126Z,26.67
2018-12-17T06:14:26.349Z,41.50
2018-12-17T06:16:56.203Z,41.30
2018-12-17T06:19:25.442Z,42.17
2018-12-17T06:21:54.679Z,35.87
2018-12-17T06:24:23.937Z,34.40
2018-12-17T06:26:53.217Z,34.37
2018-12-17T06:29:22.518Z,35.87
2018-12-17T06:31:51.769Z,33.40
2018-12-17T06:34:21.010Z,35.17
2018-12-17T06:36:50.250Z,32.70
2018-12-17T06:39:19.718Z,27.73
2018-12-17T06:41:49.041Z,29.47
2018-12-17T06:44:18.334Z,27.30
2018-12-17T06:46:47.565Z,26.93
2018-12-17T06:49:16.857Z,40.63
2018-12-17T06:51:46.365Z,32.67
2018-12-17T06:54:15.802Z,46.97
2018-12-17T06:56:45.164Z,39.17
2018-12-17T06:59:14.396Z,40.83
2018-12-17T07:01:43.643Z,37.50
2018-12-17T07:04:12.867Z,43.83
2018-12-17T07:06:42.202Z,34.63
2018-12-17T07:09:11.434Z,39.50
2018-12-17T07:11:40.669Z,38.37
2018-12-17T07:14:09.922Z,27.23
2018-12-17T07:16:39.163Z,32.07
2018-12-17T07:19:08.413Z,31.80
2018-12-17T07:21:37.658Z,37.10
2018-12-17T07:24:06.921Z,34.63
2018-12-17T07:26:36.181Z,31.07
2018-12-17T07:29:05.506Z,33.00
2018-12-17T07:31:34.886Z,34.70
2018-12-17T07:34:04.311Z,30.90
2018-12-17T07:36:33.764Z,30.43
2018-12-17T07:39:03.702Z,33.13
2018-12-17T07:41:33.053Z,30.00
2018-12-17T07:44:02.301Z,27.10
2018-12-17T07:46:31.575Z,25.27
2018-12-17T07:49:00.819Z,29.13
2018-12-17T07:51:30.132Z,30.60
2018-12-17T07:53:59.367Z,32.27
2018-12-17T07:56:29.279Z,26.33
2018-12-17T07:58:58.507Z,24.67
2018-12-17T08:01:28.249Z,21.80
2018-12-17T08:03:57.495Z,22.03
2018-12-17T08:06:26.721Z,22.67
2018-12-17T08:08:55.938Z,26.63
2018-12-17T08:11:25.234Z,27.87
2018-12-17T08:13:54.557Z,24.40
2018-12-17T08:16:23.812Z,20.00
2018-12-17T08:18:53.041Z,25.53
2018-12-17T08:21:22.338Z,25.23
2018-12-17T08:23:51.576Z,26.77
2018-12-17T08:26:20.895Z,24.10
2018-12-17T08:28:50.405Z,24.57
2018-12-17T08:31:19.798Z,22.13
2018-12-17T08:33:49.111Z,25.77
2018-12-17T08:36:18.415Z,26.50
2018-12-17T08:38:47.669Z,20.07
2018-12-17T08:41:16.885Z,21.73
2018-12-17T08:43:46.282Z,22.43
2018-12-17T08:46:15.515Z,18.43
2018-12-17T08:48:44.859Z,19.00
2018-12-17T08:51:14.154Z,19.30
2018-12-17T08:53:43.377Z,27.20
2018-12-17T08:56:12.678Z,27.00
2018-12-17T08:58:41.995Z,27.67
2018-12-17T09:01:11.219Z,25.73
2018-12-17T09:03:40.647Z,27.70
2018-12-17T09:06:09.958Z,30.90
2018-12-17T09:08:39.198Z,23.73
2018-12-17T09:11:08.434Z,26.87
2018-12-17T09:16:37.693Z,30.30
2018-12-17T09:19:06.912Z,23.20
2018-12-17T09:21:36.225Z,24.70
2018-12-17T09:24:05.745Z,22.40
2018-12-17T09:26:35.181Z,22.40
2018-12-17T09:29:04.664Z,21.07
2018-12-17T09:31:34.047Z,24.33
2018-12-17T09:34:03.341Z,23.03
2018-12-17T09:36:32.549Z,20.97
2018-12-17T09:39:01.762Z,17.67
2018-12-17T09:41:31.862Z,17.53
2018-12-17T09:44:01.075Z,16.27
2018-12-17T09:46:31.542Z,17.30
2018-12-17T09:49:00.843Z,16.37
2018-12-17T09:51:30.150Z,16.67
2018-12-17T09:53:59.449Z,16.30
2018-12-17T09:56:28.705Z,16.17
2018-12-17T09:58:58.047Z,15.33
2018-12-17T10:01:27.246Z,16.13
2018-12-17T10:03:56.450Z,16.50
2018-12-17T10:06:25.777Z,16.50
2018-12-17T10:08:55.005Z,15.60
2018-12-17T10:11:24.253Z,16.67
2018-12-17T10:13:53.669Z,16.40
2018-12-17T10:16:22.892Z,17.43
2018-12-17T10:18:52.120Z,17.30
2018-12-17T10:21:21.335Z,16.43
2018-12-17T10:23:50.644Z,16.70
2018-12-17T10:26:19.868Z,17.60
2018-12-17T10:28:49.250Z,17.57
2018-12-17T10:31:18.553Z,15.73
2018-12-17T10:33:47.841Z,16.57
2018-12-17T10:36:17.089Z,16.83
2018-12-17T10:38:46.589Z,17.00
2018-12-17T10:41:15.829Z,16.57
2018-12-17T10:43:45.502Z,17.27
2018-12-17T10:46:14.817Z,16.93
2018-12-17T10:48:44.357Z,18.57
2018-12-17T10:51:13.604Z,18.37
2018-12-17T10:53:43.222Z,17.93
2018-12-17T10:56:12.554Z,18.07
2018-12-17T10:58:42.067Z,18.30
2018-12-17T11:01:16.520Z,18.97
2018-12-17T11:06:51.275Z,18.17
2018-12-17T11:09:20.503Z,19.90
2018-12-17T11:11:50.783Z,20.50
2018-12-17T11:14:20.109Z,19.67
2018-12-17T11:16:49.394Z,19.60
2018-12-17T11:19:18.705Z,21.40
2018-12-17T11:21:48.178Z,20.90
2018-12-17T11:24:17.439Z,22.83
2018-12-17T11:26:46.825Z,20.83
2018-12-17T11:29:17.286Z,19.20
2018-12-17T11:31:46.676Z,20.57
2018-12-17T11:34:15.926Z,20.47
2018-12-17T11:36:45.378Z,21.13
2018-12-17T11:39:14.952Z,19.70
2018-12-17T11:41:44.216Z,21.57
2018-12-17T11:44:13.550Z,20.47
2018-12-17T11:46:44.508Z,19.47
2018-12-17T11:49:13.783Z,20.57
2018-12-17T11:51:43.243Z,21.33
2018-12-17T11:54:12.619Z,21.80
2018-12-17T11:57:02.371Z,21.53
2018-12-17T11:59:31.635Z,21.37
2018-12-17T12:02:00.981Z,22.40
2018-12-17T12:04:30.208Z,21.83
2018-12-17T12:06:59.469Z,21.57
2018-12-17T12:12:30.324Z,21.50
2018-12-17T12:15:00.274Z,21.07
2018-12-17T12:17:31.089Z,21.40
2018-12-17T12:20:00.347Z,21.20
2018-12-17T12:22:29.669Z,21.03
2018-12-17T12:24:58.905Z,20.37
2018-12-17T12:27:28.296Z,19.57
2018-12-17T12:29:57.913Z,20.30
2018-12-17T12:32:27.273Z,19.80
2018-12-17T12:34:56.602Z,20.03
2018-12-17T12:37:25.905Z,19.63
2018-12-17T12:39:55.130Z,19.23
2018-12-17T12:42:24.370Z,20.37
2018-12-17T12:44:53.597Z,19.77
2018-12-17T12:47:23.029Z,20.20
2018-12-17T12:49:52.239Z,20.80
2018-12-17T12:52:21.510Z,20.43
2018-12-17T12:54:50.821Z,20.50
2018-12-17T12:57:20.050Z,21.33
2018-12-17T12:59:49.286Z,20.77
2018-12-17T13:02:18.597Z,19.83
2018-12-17T13:04:47.917Z,19.63
2018-12-17T13:07:17.326Z,20.30
2018-12-17T13:09:46.599Z,21.67
2018-12-17T13:12:15.849Z,21.73
2018-12-17T13:14:45.270Z,18.77
2018-12-17T13:17:19.807Z,19.77
2018-12-17T13:19:49.216Z,20.53
2018-12-17T13:22:18.434Z,21.07
2018-12-17T13:24:47.693Z,20.90
2018-12-17T13:27:16.975Z,19.73
2018-12-17T13:29:46.202Z,21.03
2018-12-17T13:32:15.537Z,20.20
2018-12-17T13:34:44.767Z,21.00
2018-12-17T13:37:13.986Z,20.57
2018-12-17T13:39:43.366Z,22.70
2018-12-17T13:42:12.665Z,22.73
2018-12-17T13:44:42.114Z,21.40
2018-12-17T13:47:12.472Z,23.03
2018-12-17T13:49:41.715Z,22.23
2018-12-17T13:52:16.238Z,23.63
2018-12-17T13:54:45.438Z,23.70
2018-12-17T13:57:15.085Z,22.87
2018-12-17T13:59:44.813Z,23.37
2018-12-17T14:02:14.449Z,21.60
2018-12-17T14:04:43.674Z,22.70
2018-12-17T14:07:12.894Z,22.87
2018-12-17T14:09:47.405Z,24.33
2018-12-17T14:12:16.754Z,26.00
2018-12-17T14:14:46.057Z,22.23
2018-12-17T14:17:20.749Z,22.73
2018-12-17T14:19:54.828Z,23.60
2018-12-17T14:22:24.387Z,23.73
2018-12-17T14:24:53.697Z,23.90
2018-12-17T14:27:22.917Z,25.20
2018-12-17T14:29:52.236Z,34.53
2018-12-17T14:32:21.451Z,26.90
2018-12-17T14:34:50.770Z,27.37
2018-12-17T14:37:20.003Z,32.47
2018-12-17T14:39:49.234Z,26.03
2018-12-17T14:42:18.563Z,26.97
2018-12-17T14:44:47.932Z,25.00
2018-12-17T14:47:17.228Z,29.70
2018-12-17T14:49:47.049Z,24.47
2018-12-17T14:52:17.370Z,26.23
2018-12-17T14:54:47.009Z,27.20
2018-12-17T14:57:16.349Z,28.97
2018-12-17T14:59:45.641Z,28.67
2018-12-17T15:02:14.894Z,27.17
2018-12-17T15:04:44.236Z,28.13
2018-12-17T15:07:13.644Z,26.43
2018-12-17T15:09:42.857Z,27.33
2018-12-17T15:12:12.114Z,25.43
2018-12-17T15:14:41.481Z,25.63
2018-12-17T15:17:10.745Z,26.80
2018-12-17T15:19:39.968Z,24.80
2018-12-17T15:22:09.205Z,25.17
2018-12-17T15:24:40.440Z,23.73
2018-12-17T15:27:09.690Z,26.70
2018-12-17T15:29:38.980Z,26.73
2018-12-17T15:32:08.419Z,26.03
2018-12-17T15:34:37.888Z,28.80
2018-12-17T15:37:07.185Z,29.57
2018-12-17T15:39:36.421Z,31.57
2018-12-17T15:42:05.942Z,35.53
2018-12-17T15:44:35.241Z,31.67
2018-12-17T15:47:04.484Z,28.97
2018-12-17T15:49:33.809Z,28.20
2018-12-17T15:52:03.059Z,27.40
2018-12-17T15:54:32.586Z,25.07
2018-12-17T15:57:01.825Z,25.17
2018-12-17T15:59:31.977Z,29.13
2018-12-17T16:02:01.190Z,33.87
2018-12-17T16:04:30.486Z,36.07
2018-12-17T16:06:59.721Z,30.87
2018-12-17T16:09:28.937Z,32.73
2018-12-17T16:11:58.245Z,31.37
2018-12-17T16:14:27.502Z,28.63
2018-12-17T16:16:56.757Z,28.57
2018-12-17T16:19:25.977Z,28.90
2018-12-17T16:21:55.249Z,28.37
2018-12-17T16:24:24.458Z,25.90
2018-12-17T16:26:53.701Z,25.73
2018-12-17T16:29:22.960Z,24.10
2018-12-17T16:31:57.536Z,24.17
2018-12-17T16:34:26.527Z,26.10
2018-12-17T16:36:56.131Z,24.40
2018-12-17T16:39:26.194Z,32.90
2018-12-17T16:41:56.037Z,28.27
2018-12-17T16:44:25.302Z,28.43
2018-12-17T16:46:54.596Z,28.30
2018-12-17T16:49:23.811Z,25.20
2018-12-17T16:51:53.119Z,25.03
2018-12-17T16:54:22.676Z,25.63
2018-12-17T16:56:51.919Z,25.03
2018-12-17T16:59:21.216Z,25.13
2018-12-17T17:01:50.437Z,29.87
2018-12-17T17:04:19.657Z,26.90
2018-12-17T17:06:48.937Z,26.30
2018-12-17T17:09:18.478Z,23.50
2018-12-17T17:11:47.761Z,23.17
2018-12-17T17:14:17.004Z,24.17
2018-12-17T17:16:46.731Z,23.43
2018-12-17T17:19:16.076Z,23.23
2018-12-17T17:21:45.759Z,23.87
2018-12-17T17:24:15.080Z,25.57
2018-12-17T17:26:44.351Z,26.07
2018-12-17T17:29:13.569Z,25.97
2018-12-17T17:31:42.879Z,25.07
2018-12-17T17:34:12.099Z,25.60
2018-12-17T17:36:41.302Z,25.33
2018-12-17T17:39:10.590Z,24.97
2018-12-17T17:44:38.195Z,28.27
2018-12-17T17:47:07.626Z,27.97
2018-12-17T17:49:36.836Z,27.37
2018-12-17T17:52:06.282Z,25.93
2018-12-17T17:54:35.523Z,25.97
2018-12-17T17:57:05.019Z,26.83
2018-12-17T17:59:34.269Z,25.63
2018-12-17T18:02:03.768Z,25.30
2018-12-17T18:04:33.142Z,26.87
2018-12-17T18:07:02.442Z,26.07
2018-12-17T18:09:31.663Z,30.17
2018-12-17T18:12:00.976Z,37.17
2018-12-17T18:14:30.226Z,37.83
2018-12-17T18:16:59.550Z,34.60
2018-12-17T18:19:28.801Z,28.63
2018-12-17T18:21:58.041Z,27.57
2018-12-17T18:24:27.263Z,26.73
2018-12-17T18:26:56.497Z,28.17
2018-12-17T18:29:25.730Z,27.00
2018-12-17T18:31:55.040Z,28.50
2018-12-17T18:34:24.292Z,26.83
2018-12-17T18:36:53.531Z,27.07
2018-12-17T18:39:23.554Z,28.03
2018-12-17T18:41:52.773Z,27.10
2018-12-17T18:44:22.184Z,26.23
2018-12-17T18:46:51.420Z,25.87
2018-12-17T18:49:20.671Z,25.27
2018-12-17T18:51:50.165Z,27.87
2018-12-17T18:54:19.483Z,28.53
2018-12-17T18:56:48.909Z,26.53
2018-12-17T18:59:18.265Z,33.03
2018-12-17T19:01:47.693Z,36.67
2018-12-17T19:04:17.003Z,34.73
2018-12-17T19:06:46.286Z,28.37
2018-12-17T19:09:15.641Z,27.13
2018-12-17T19:11:44.979Z,28.80
2018-12-17T19:14:14.345Z,27.83
2018-12-17T19:16:43.668Z,28.50
2018-12-17T19:19:13.126Z,30.03
2018-12-17T19:21:42.687Z,25.97
2018-12-17T19:24:12.026Z,27.97
2018-12-17T19:26:41.363Z,28.47
2018-12-17T19:29:10.827Z,29.27
2018-12-17T19:31:40.176Z,29.07
2018-12-17T19:34:09.435Z,30.73
2018-12-17T19:36:38.800Z,30.13
2018-12-17T19:39:09.026Z,29.23
2018-12-17T19:41:38.384Z,27.00
2018-12-17T19:44:07.737Z,27.10
2018-12-17T19:46:37.074Z,27.40
2018-12-17T19:49:06.536Z,28.83
2018-12-17T19:51:35.980Z,26.10
2018-12-17T19:54:05.635Z,25.53
2018-12-17T19:56:34.999Z,26.60
2018-12-17T19:59:05.084Z,26.40
2018-12-17T20:01:34.707Z,25.80
2018-12-17T20:07:05.709Z,30.93
2018-12-17T20:09:35.102Z,31.03
2018-12-17T20:12:04.743Z,27.40
2018-12-17T20:14:34.045Z,28.10
2018-12-17T20:17:03.448Z,24.63
2018-12-17T20:19:32.817Z,25.53
2018-12-17T20:22:02.297Z,23.70
2018-12-17T20:24:31.710Z,23.50
2018-12-17T20:27:01.010Z,22.90
2018-12-17T20:29:30.426Z,24.90
2018-12-17T20:31:59.768Z,32.20
2018-12-17T20:34:29.163Z,26.77
2018-12-17T20:36:58.490Z,26.87
2018-12-17T20:39:28.684Z,28.17
2018-12-17T20:41:58.129Z,27.27
2018-12-17T20:44:27.449Z,25.50
2018-12-17T20:46:56.964Z,24.27
2018-12-17T20:49:26.382Z,25.47
2018-12-17T20:51:55.761Z,24.93
2018-12-17T20:54:25.037Z,25.07
2018-12-17T20:56:54.429Z,26.57
2018-12-17T20:59:23.731Z,25.27
2018-12-17T21:01:53.019Z,23.60
2018-12-17T21:04:22.453Z,24.67
2018-12-17T21:06:51.770Z,23.63
2018-12-17T21:09:21.073Z,24.17
2018-12-17T21:11:50.342Z,23.37
2018-12-17T21:14:23.613Z,24.13
2018-12-17T21:16:51.308Z,22.73
2018-12-17T21:19:20.870Z,21.47
2018-12-17T21:21:50.218Z,23.83
2018-12-17T21:24:20.001Z,23.73
2018-12-17T21:26:49.291Z,22.63
2018-12-17T21:29:18.659Z,25.40
2018-12-17T21:31:48.014Z,28.50
2018-12-17T21:34:17.475Z,27.40
2018-12-17T21:36:46.949Z,25.83
2018-12-17T21:39:16.332Z,26.27
2018-12-17T21:41:45.648Z,26.27
2018-12-17T21:44:15.115Z,25.17
2018-12-17T21:46:44.607Z,25.07
2018-12-17T21:49:14.621Z,25.67
2018-12-17T21:51:43.934Z,24.57
2018-12-17T21:54:13.367Z,28.13
2018-12-17T21:56:42.746Z,26.93
2018-12-17T21:59:12.058Z,27.20
2018-12-17T22:01:41.409Z,23.43
2018-12-17T22:04:10.879Z,25.33
2018-12-17T22:06:40.593Z,22.70
2018-12-17T22:09:10.002Z,23.03
2018-12-17T22:11:39.350Z,26.30
2018-12-17T22:14:08.758Z,25.23
2018-12-17T22:16:38.061Z,25.60
2018-12-17T22:19:07.558Z,25.27
2018-12-17T22:21:36.936Z,24.10
2018-12-17T22:24:06.266Z,29.30
2018-12-17T22:26:35.535Z,28.63
2018-12-17T22:29:05.583Z,27.13
2018-12-17T22:31:34.930Z,30.57
2018-12-17T22:34:04.857Z,27.93
2018-12-17T22:36:34.273Z,26.50
2018-12-17T22:39:05.572Z,25.73
2018-12-17T22:41:34.893Z,24.37
2018-12-17T22:44:04.597Z,23.60
2018-12-17T22:46:34.058Z,21.90
2018-12-17T22:49:03.469Z,21.60
2018-12-17T22:51:32.759Z,21.00
2018-12-17T22:54:02.532Z,22.57
2018-12-17T22:56:31.813Z,21.53
2018-12-17T23:02:03.987Z,22.70
2018-12-17T23:04:33.300Z,23.53
2018-12-17T23:07:02.789Z,24.70
2018-12-17T23:09:49.125Z,24.20
2018-12-17T23:12:35.421Z,23.20
2018-12-17T23:15:21.702Z,23.87
2018-12-17T23:17:49.537Z,23.73
2018-12-17T23:20:19.492Z,23.23
2018-12-17T23:22:48.991Z,25.20
2018-12-17T23:25:18.268Z,24.37
2018-12-17T23:27:51.349Z,23.50
2018-12-17T23:30:23.350Z,23.67
2018-12-17T23:32:52.694Z,22.43
2018-12-17T23:35:21.990Z,23.93
2018-12-17T23:37:51.334Z,23.60
2018-12-17T23:40:20.678Z,23.90
2018-12-17T23:42:50.045Z,24.67
2018-12-17T23:45:21.489Z,30.93
2018-12-17T23:47:51.378Z,32.70
2018-12-17T23:50:20.741Z,26.63
2018-12-17T23:52:50.017Z,24.57
2018-12-17T23:55:19.340Z,23.63
2018-12-17T23:57:50.050Z,23.17
